メインページ
METAR-TAF:

METAR-TAF

空港 :

Sirri Island, イラン

緯度: 25-54-34N, 経度: 054-32-22E, 海抜: 13m

現時点の気象観測

当レポートは58分前の11:00(UTC)に作成
北/北西の風 8kt
気温 26°C
湿度 48%
気圧 1016 hPa
視程10km以上
1,500メートル以下は雲なし、積乱雲なし

METAR: OIBS 121100Z 33008KT CAVOK 26/14 Q1016

時間: 15:28 (11:58 UTC)


TAF: 見つかりません

4,000以上の空港の気象観測と天気予報(METAR報とTAF報)

利用可能な観測所は地図上に黄色い丸と赤い丸で示す。

丸の上にカーソルを重ねると観測所名を参照できる。

次にクリックすると気象観測と天気予報を参照できる。

マップの切り替え:黒色「×」印の緑ボタンをクリックして拡大、「-」印の緑ボタンをクリックして縮小、緑色の三角印をクリックして隣りの地図に切り替え


METAR-TAF: